createdAt,value
2022-12-12T00:00:25.124Z,67.14
2022-12-12T00:02:54.843Z,67.26
2022-12-12T00:05:21.586Z,67.31
2022-12-12T00:07:48.142Z,67.15
2022-12-12T00:10:17.207Z,66.67
2022-12-12T00:12:43.702Z,66.33
2022-12-12T00:15:10.540Z,67.42
2022-12-12T00:17:37.330Z,66.80
2022-12-12T00:20:04.415Z,66.17
2022-12-12T00:22:30.950Z,65.66
2022-12-12T00:24:57.591Z,65.88
2022-12-12T00:27:24.131Z,65.78
2022-12-12T00:29:55.159Z,65.85
2022-12-12T00:32:22.254Z,65.49
2022-12-12T00:34:49.375Z,65.65
2022-12-12T00:37:15.994Z,66.22
2022-12-12T00:39:42.544Z,65.34
2022-12-12T00:42:09.068Z,66.07
2022-12-12T00:44:35.661Z,65.70
2022-12-12T00:47:02.902Z,66.63
2022-12-12T00:49:32.262Z,65.39
2022-12-12T00:52:01.275Z,66.05
2022-12-12T00:54:27.833Z,65.96
2022-12-12T00:56:54.390Z,65.58
2022-12-12T00:59:23.988Z,65.97
2022-12-12T01:01:50.633Z,65.82
2022-12-12T01:04:19.581Z,66.35
2022-12-12T01:06:46.856Z,66.10
2022-12-12T01:09:14.141Z,66.22
2022-12-12T01:11:40.665Z,66.57
2022-12-12T01:14:07.467Z,66.06
2022-12-12T01:16:36.286Z,65.17
2022-12-12T01:19:05.452Z,65.77
2022-12-12T01:21:34.525Z,66.12
2022-12-12T01:24:01.608Z,65.18
2022-12-12T01:26:30.710Z,65.49
2022-12-12T01:28:57.226Z,65.91
2022-12-12T01:31:23.885Z,65.07
2022-12-12T01:33:53.003Z,65.91
2022-12-12T01:36:20.790Z,66.17
2022-12-12T01:38:53.092Z,66.15
2022-12-12T01:41:20.286Z,65.94
2022-12-12T01:43:46.862Z,65.86
2022-12-12T01:46:22.599Z,66.10
2022-12-12T01:48:50.744Z,66.24
2022-12-12T01:51:19.102Z,66.19
2022-12-12T01:53:45.694Z,66.37
2022-12-12T01:56:12.915Z,66.24
2022-12-12T01:58:43.790Z,66.45
2022-12-12T02:01:10.729Z,66.15
2022-12-12T02:03:40.662Z,65.79
2022-12-12T02:06:07.959Z,66.27
2022-12-12T02:08:36.899Z,66.38
2022-12-12T02:11:08.006Z,65.48
2022-12-12T02:13:34.620Z,66.09
2022-12-12T02:16:07.898Z,65.96
2022-12-12T02:18:55.204Z,66.41
2022-12-12T02:21:24.522Z,66.00
2022-12-12T02:23:51.663Z,66.16
2022-12-12T02:26:33.196Z,66.11
2022-12-12T02:29:08.889Z,66.05
2022-12-12T02:31:41.006Z,65.77
2022-12-12T02:34:09.668Z,64.73
2022-12-12T02:36:39.342Z,64.26
2022-12-12T02:39:05.855Z,64.31
2022-12-12T02:41:32.327Z,64.39
2022-12-12T02:44:14.519Z,63.68
2022-12-12T02:46:52.831Z,63.27
2022-12-12T02:49:23.192Z,63.66
2022-12-12T02:51:52.064Z,63.06
2022-12-12T02:54:19.887Z,62.95
2022-12-12T02:56:46.467Z,63.83
2022-12-12T02:59:22.238Z,63.67
2022-12-12T03:01:54.870Z,63.69
2022-12-12T03:04:48.278Z,63.05
2022-12-12T03:07:56.551Z,61.99
2022-12-12T03:10:32.465Z,61.00
2022-12-12T03:13:04.504Z,62.08
2022-12-12T03:15:36.372Z,62.31
2022-12-12T03:18:06.036Z,62.29
2022-12-12T03:20:36.092Z,61.30
2022-12-12T03:23:03.412Z,60.27
2022-12-12T03:25:34.498Z,61.07
2022-12-12T03:28:01.004Z,60.61
2022-12-12T03:30:27.495Z,59.72
2022-12-12T03:32:58.856Z,60.62
2022-12-12T03:35:29.200Z,59.75
2022-12-12T03:37:58.402Z,58.85
2022-12-12T03:40:30.183Z,59.06
2022-12-12T03:42:59.781Z,59.47
2022-12-12T03:45:35.258Z,58.74
2022-12-12T03:48:08.327Z,59.08
2022-12-12T03:51:04.307Z,58.93
2022-12-12T03:53:37.486Z,58.96
2022-12-12T03:56:08.274Z,58.11
2022-12-12T03:58:53.286Z,57.81
2022-12-12T04:01:22.705Z,57.32
2022-12-12T04:03:56.473Z,57.70
2022-12-12T04:06:36.201Z,57.99
2022-12-12T04:09:29.570Z,58.08
2022-12-12T04:12:21.556Z,58.76
2022-12-12T04:15:00.300Z,58.68
2022-12-12T04:17:32.180Z,59.53
2022-12-12T04:20:20.564Z,58.66
2022-12-12T04:23:10.992Z,58.83
2022-12-12T04:26:01.208Z,58.66
2022-12-12T04:28:27.770Z,58.27
2022-12-12T04:30:54.620Z,58.31
2022-12-12T04:33:21.277Z,58.46
2022-12-12T04:35:48.373Z,58.46
2022-12-12T04:38:19.487Z,57.94
2022-12-12T04:40:46.883Z,58.17
2022-12-12T04:43:19.761Z,57.46
2022-12-12T04:45:57.110Z,58.52
2022-12-12T04:48:29.949Z,57.21
2022-12-12T04:50:56.490Z,56.86
2022-12-12T04:53:29.948Z,57.08
2022-12-12T04:56:01.852Z,56.51
2022-12-12T04:58:28.493Z,55.99
2022-12-12T05:01:07.829Z,56.27
2022-12-12T05:03:39.108Z,56.60
2022-12-12T05:06:12.534Z,56.52
2022-12-12T05:08:43.206Z,56.76
2022-12-12T05:11:09.796Z,56.41
2022-12-12T05:13:38.051Z,56.62
2022-12-12T05:16:07.533Z,56.94
2022-12-12T05:18:34.106Z,57.05
2022-12-12T05:21:00.656Z,56.57
2022-12-12T05:23:31.570Z,56.51
2022-12-12T05:26:05.699Z,56.76
2022-12-12T05:28:32.357Z,57.31
2022-12-12T05:30:59.353Z,57.04
2022-12-12T05:33:26.075Z,57.01
2022-12-12T05:35:55.079Z,57.73
2022-12-12T05:38:25.409Z,57.49
2022-12-12T05:40:56.944Z,58.00
2022-12-12T05:43:23.481Z,58.35
2022-12-12T05:45:50.269Z,58.67
2022-12-12T05:48:22.612Z,59.01
2022-12-12T05:50:50.897Z,59.15
2022-12-12T05:53:17.951Z,59.32
2022-12-12T05:55:44.464Z,59.63
2022-12-12T05:58:11.118Z,59.37
2022-12-12T06:00:37.701Z,59.53
2022-12-12T06:03:04.261Z,59.74
2022-12-12T06:05:31.043Z,59.02
2022-12-12T06:07:57.644Z,58.78
2022-12-12T06:10:24.315Z,59.02
2022-12-12T06:12:53.346Z,59.20
2022-12-12T06:15:28.152Z,58.45
2022-12-12T06:17:55.226Z,59.02
2022-12-12T06:20:21.845Z,59.18
2022-12-12T06:22:53.401Z,58.27
2022-12-12T06:25:20.645Z,58.34
2022-12-12T06:27:47.506Z,59.37
2022-12-12T06:30:16.574Z,58.68
2022-12-12T06:32:43.381Z,59.06
2022-12-12T06:35:10.276Z,59.29
2022-12-12T06:37:37.222Z,59.31
2022-12-12T06:40:04.465Z,59.18
2022-12-12T06:42:31.017Z,59.27
2022-12-12T06:44:57.584Z,59.12
2022-12-12T06:47:24.191Z,59.30
2022-12-12T06:49:50.828Z,59.33
2022-12-12T06:52:19.797Z,59.55
2022-12-12T06:54:48.691Z,59.33
2022-12-12T06:57:17.769Z,59.38
2022-12-12T06:59:44.586Z,58.89
2022-12-12T07:02:13.645Z,59.11
2022-12-12T07:04:41.380Z,58.76
2022-12-12T07:07:07.931Z,58.68
2022-12-12T07:09:34.561Z,58.60
2022-12-12T07:12:03.694Z,58.51
2022-12-12T07:14:30.321Z,58.58
2022-12-12T07:16:56.917Z,57.95
2022-12-12T07:19:28.009Z,58.24
2022-12-12T07:21:57.054Z,58.23
2022-12-12T07:24:26.063Z,57.90
2022-12-12T07:26:52.663Z,58.17
2022-12-12T07:29:19.217Z,58.33
2022-12-12T07:31:45.785Z,58.28
2022-12-12T07:34:15.360Z,57.88
2022-12-12T07:36:44.478Z,57.95
2022-12-12T07:39:13.560Z,57.99
2022-12-12T07:41:43.800Z,57.59
2022-12-12T07:44:10.313Z,57.68
2022-12-12T07:46:39.216Z,57.55
2022-12-12T07:49:05.833Z,57.49
2022-12-12T07:51:32.519Z,57.16
2022-12-12T07:53:59.077Z,57.30
2022-12-12T07:56:25.705Z,57.27
2022-12-12T07:58:53.396Z,57.18
2022-12-12T08:01:21.372Z,57.47
2022-12-12T08:03:48.181Z,56.88
2022-12-12T08:06:16.327Z,57.08
2022-12-12T08:08:45.756Z,56.88
2022-12-12T08:11:13.528Z,56.38
2022-12-12T08:13:40.487Z,55.71
2022-12-12T08:16:08.056Z,55.25
2022-12-12T08:18:40.106Z,55.86
2022-12-12T08:21:09.308Z,55.71
2022-12-12T08:23:36.205Z,55.02
2022-12-12T08:26:14.819Z,54.01
2022-12-12T08:28:49.838Z,53.53
2022-12-12T08:31:16.979Z,53.65
2022-12-12T08:33:43.928Z,53.51
2022-12-12T08:36:11.348Z,53.69
2022-12-12T08:38:37.905Z,53.11
2022-12-12T08:41:04.681Z,53.28
2022-12-12T08:43:31.736Z,52.37
2022-12-12T08:46:01.892Z,52.53
2022-12-12T08:48:30.917Z,52.37
2022-12-12T08:50:57.691Z,51.76
2022-12-12T08:53:24.545Z,51.63
2022-12-12T08:55:51.135Z,51.41
2022-12-12T08:58:17.730Z,51.45
2022-12-12T09:00:44.520Z,50.66
2022-12-12T09:03:13.985Z,50.89
2022-12-12T09:05:44.530Z,50.58
2022-12-12T09:08:11.714Z,50.51
2022-12-12T09:10:42.231Z,50.57
2022-12-12T09:13:08.997Z,50.55
2022-12-12T09:15:38.431Z,51.01
2022-12-12T09:18:05.336Z,50.80
2022-12-12T09:20:34.364Z,50.92
2022-12-12T09:23:00.951Z,51.29
2022-12-12T09:25:27.674Z,51.46
2022-12-12T09:27:54.318Z,50.82
2022-12-12T09:30:23.365Z,50.82
2022-12-12T09:32:49.959Z,50.46
2022-12-12T09:35:18.791Z,49.92
2022-12-12T09:37:45.364Z,50.97
2022-12-12T09:40:16.670Z,49.79
2022-12-12T09:42:49.553Z,50.14
2022-12-12T09:45:16.342Z,50.42
2022-12-12T09:47:43.597Z,50.03
2022-12-12T09:50:25.516Z,50.28
2022-12-12T09:52:52.754Z,50.06
2022-12-12T09:55:38.196Z,50.35
2022-12-12T09:58:07.060Z,49.46
2022-12-12T10:00:36.645Z,49.55
2022-12-12T10:03:35.858Z,49.54
2022-12-12T10:06:35.874Z,49.58
2022-12-12T10:09:11.735Z,50.05
2022-12-12T10:11:51.949Z,50.41
2022-12-12T10:14:34.491Z,50.99
2022-12-12T10:17:01.641Z,50.50
2022-12-12T10:19:31.667Z,51.24
2022-12-12T10:22:00.806Z,50.50
2022-12-12T10:24:27.345Z,51.08
2022-12-12T10:26:54.551Z,51.02
2022-12-12T10:29:22.083Z,51.10
2022-12-12T10:32:05.889Z,50.31
2022-12-12T10:34:38.703Z,50.17
2022-12-12T10:37:16.030Z,49.47
2022-12-12T10:39:47.803Z,50.25
2022-12-12T10:42:23.548Z,50.57
2022-12-12T10:45:00.717Z,50.12
2022-12-12T10:47:29.654Z,50.41
2022-12-12T10:50:03.045Z,49.69
2022-12-12T10:52:39.970Z,50.21
2022-12-12T10:55:09.218Z,50.41
2022-12-12T10:57:35.812Z,49.67
2022-12-12T11:00:15.590Z,50.27
2022-12-12T11:02:44.015Z,50.18
2022-12-12T11:05:26.881Z,50.21
2022-12-12T11:08:06.733Z,49.86
2022-12-12T11:10:36.215Z,49.72
2022-12-12T11:13:08.938Z,50.79
2022-12-12T11:15:46.888Z,50.10
2022-12-12T11:18:16.939Z,50.29
2022-12-12T11:20:45.604Z,51.76
2022-12-12T11:23:45.799Z,51.78
2022-12-12T11:26:13.581Z,52.29
2022-12-12T11:28:40.241Z,52.57
2022-12-12T11:31:17.570Z,52.36
2022-12-12T11:33:48.667Z,52.42
2022-12-12T11:36:15.680Z,52.01
2022-12-12T11:38:46.873Z,52.30
2022-12-12T11:41:14.283Z,50.85
2022-12-12T11:43:49.358Z,50.47
2022-12-12T11:46:15.981Z,50.20
2022-12-12T11:48:42.535Z,49.74
2022-12-12T11:51:09.116Z,49.65
2022-12-12T11:53:39.930Z,50.23
2022-12-12T11:56:08.840Z,50.64
2022-12-12T11:58:35.382Z,50.40
2022-12-12T12:01:06.322Z,50.64
2022-12-12T12:03:38.400Z,50.54
2022-12-12T12:06:11.891Z,50.17
2022-12-12T12:08:49.927Z,51.04
2022-12-12T12:11:36.113Z,53.00
2022-12-12T12:14:06.004Z,53.83
2022-12-12T12:16:32.716Z,54.24
2022-12-12T12:19:01.637Z,53.30
2022-12-12T12:21:46.629Z,53.99
2022-12-12T12:24:18.711Z,53.84
2022-12-12T12:27:04.400Z,54.61
2022-12-12T12:30:10.068Z,54.97
2022-12-12T12:32:55.616Z,54.76
2022-12-12T12:35:24.692Z,55.16
2022-12-12T12:38:06.937Z,55.83
2022-12-12T12:40:52.381Z,56.45
2022-12-12T12:43:19.471Z,56.75
2022-12-12T12:45:57.597Z,57.48
2022-12-12T12:48:27.300Z,57.51
2022-12-12T12:51:03.079Z,57.39
2022-12-12T12:53:37.110Z,57.22
2022-12-12T12:56:08.094Z,57.26
2022-12-12T12:58:42.144Z,56.66
2022-12-12T13:01:13.198Z,56.95
2022-12-12T13:03:52.068Z,55.61
2022-12-12T13:06:20.352Z,55.72
2022-12-12T13:08:47.008Z,55.92
2022-12-12T13:11:28.814Z,55.17
2022-12-12T13:13:56.380Z,55.36
2022-12-12T13:16:23.471Z,56.28
2022-12-12T13:18:55.698Z,57.08
2022-12-12T13:21:41.075Z,57.71
2022-12-12T13:24:14.221Z,58.09
2022-12-12T13:26:56.261Z,58.22
2022-12-12T13:29:35.595Z,57.69
2022-12-12T13:32:11.674Z,58.32
2022-12-12T13:34:41.341Z,57.78
2022-12-12T13:37:07.981Z,58.43
2022-12-12T13:39:35.851Z,58.00
2022-12-12T13:42:06.619Z,58.19
2022-12-12T13:44:44.523Z,58.40
2022-12-12T13:47:23.980Z,59.08
2022-12-12T13:49:56.484Z,58.42
2022-12-12T13:52:30.882Z,59.02
2022-12-12T13:55:20.140Z,59.22
2022-12-12T13:58:08.196Z,59.05
2022-12-12T14:00:35.644Z,59.44
2022-12-12T14:03:13.421Z,59.02
2022-12-12T14:05:43.285Z,58.40
2022-12-12T14:08:09.884Z,58.34
2022-12-12T14:10:39.972Z,58.45
2022-12-12T14:13:33.568Z,57.88
2022-12-12T14:16:05.203Z,57.41
2022-12-12T14:18:38.026Z,57.61
2022-12-12T14:21:08.204Z,58.17
2022-12-12T14:23:35.961Z,57.86
2022-12-12T14:26:02.738Z,57.95
2022-12-12T14:28:30.143Z,58.16
2022-12-12T14:30:59.806Z,58.76
2022-12-12T14:33:32.626Z,58.79
2022-12-12T14:36:03.900Z,59.57
2022-12-12T14:38:34.972Z,59.97
2022-12-12T14:41:05.119Z,60.07
2022-12-12T14:43:35.984Z,60.51
2022-12-12T14:46:02.758Z,60.39
2022-12-12T14:48:29.368Z,61.14
2022-12-12T14:50:59.249Z,60.86
2022-12-12T14:53:27.834Z,60.22
2022-12-12T14:55:58.696Z,60.65
2022-12-12T14:58:27.499Z,60.64
2022-12-12T15:00:58.111Z,60.67
2022-12-12T15:03:51.128Z,60.93
2022-12-12T15:06:27.649Z,60.57
2022-12-12T15:08:55.107Z,60.37
2022-12-12T15:11:26.526Z,60.75
2022-12-12T15:13:57.106Z,61.00
2022-12-12T15:16:31.912Z,61.09
2022-12-12T15:18:58.935Z,60.47
2022-12-12T15:21:25.566Z,60.24
2022-12-12T15:23:52.557Z,60.10
2022-12-12T15:26:21.842Z,59.32
2022-12-12T15:28:51.434Z,59.99
2022-12-12T15:31:20.564Z,60.18
2022-12-12T15:33:51.903Z,59.12
2022-12-12T15:36:27.730Z,59.06
2022-12-12T15:39:07.075Z,59.01
2022-12-12T15:41:34.107Z,59.39
2022-12-12T15:44:01.393Z,59.43
2022-12-12T15:46:29.981Z,59.50
2022-12-12T15:48:56.855Z,59.69
2022-12-12T15:51:25.476Z,59.06
2022-12-12T15:53:57.049Z,59.30
2022-12-12T15:56:27.767Z,59.59
2022-12-12T15:59:15.456Z,59.73
2022-12-12T16:01:42.362Z,59.30
2022-12-12T16:04:10.694Z,59.47
2022-12-12T16:06:38.389Z,59.46
2022-12-12T16:09:09.835Z,59.61
2022-12-12T16:11:37.769Z,59.41
2022-12-12T16:14:05.158Z,59.58
2022-12-12T16:16:40.211Z,59.77
2022-12-12T16:19:16.574Z,60.00
2022-12-12T16:21:43.145Z,59.63
2022-12-12T16:24:21.136Z,59.69
2022-12-12T16:26:51.025Z,59.80
2022-12-12T16:29:17.666Z,59.82
2022-12-12T16:31:45.381Z,59.33
2022-12-12T16:34:14.509Z,58.94
2022-12-12T16:36:43.624Z,58.15
2022-12-12T16:39:13.909Z,58.16
2022-12-12T16:41:43.150Z,58.06
2022-12-12T16:44:09.749Z,57.93
2022-12-12T16:46:37.157Z,58.54
2022-12-12T16:49:05.518Z,58.16
2022-12-12T16:51:38.477Z,58.34
2022-12-12T16:54:05.107Z,57.43
2022-12-12T16:56:31.711Z,57.58
2022-12-12T16:58:58.296Z,58.04
2022-12-12T17:01:25.010Z,57.51
2022-12-12T17:03:52.008Z,57.25
2022-12-12T17:06:18.670Z,57.50
2022-12-12T17:08:45.262Z,57.74
2022-12-12T17:11:15.000Z,57.45
2022-12-12T17:13:46.721Z,58.04
2022-12-12T17:16:14.954Z,57.69
2022-12-12T17:18:41.741Z,57.61
2022-12-12T17:21:11.112Z,57.88
2022-12-12T17:23:37.755Z,58.07
2022-12-12T17:26:05.623Z,57.58
2022-12-12T17:28:37.767Z,56.85
2022-12-12T17:31:11.067Z,57.65
2022-12-12T17:33:46.211Z,57.06
2022-12-12T17:36:16.433Z,56.36
2022-12-12T17:38:43.308Z,57.39
2022-12-12T17:41:10.903Z,57.65
2022-12-12T17:43:37.752Z,57.65
2022-12-12T17:46:08.265Z,58.56
2022-12-12T17:48:37.779Z,59.31
2022-12-12T17:51:07.278Z,58.73
2022-12-12T17:53:40.271Z,59.08
2022-12-12T17:56:07.719Z,59.65
2022-12-12T17:58:38.423Z,60.35
2022-12-12T18:01:14.530Z,60.47
2022-12-12T18:03:44.738Z,61.44
2022-12-12T18:06:11.540Z,61.94
2022-12-12T18:08:38.262Z,62.38
2022-12-12T18:11:09.029Z,62.15
2022-12-12T18:13:41.351Z,62.61
2022-12-12T18:16:11.597Z,63.32
2022-12-12T18:18:38.630Z,63.72
2022-12-12T18:21:42.895Z,63.35
2022-12-12T18:24:02.111Z,63.16
2022-12-12T18:26:31.200Z,63.56
2022-12-12T18:28:59.106Z,63.19
2022-12-12T18:31:30.028Z,63.26
2022-12-12T18:33:56.747Z,63.02
2022-12-12T18:36:26.914Z,62.84
2022-12-12T18:38:56.117Z,63.67
2022-12-12T18:41:22.777Z,62.77
2022-12-12T18:43:49.566Z,62.62
2022-12-12T18:46:18.015Z,62.56
2022-12-12T18:48:45.347Z,62.61
2022-12-12T18:51:11.938Z,62.26
2022-12-12T18:53:44.218Z,62.31
2022-12-12T18:56:12.115Z,62.44
2022-12-12T18:58:38.677Z,62.52
2022-12-12T19:01:12.003Z,62.11
2022-12-12T19:03:39.397Z,62.11
2022-12-12T19:06:06.774Z,62.20
2022-12-12T19:08:36.016Z,61.94
2022-12-12T19:11:06.341Z,61.97
2022-12-12T19:13:35.195Z,62.06
2022-12-12T19:16:05.376Z,61.60
2022-12-12T19:18:32.052Z,62.05
2022-12-12T19:21:03.196Z,62.34
2022-12-12T19:23:32.312Z,62.57
2022-12-12T19:26:07.377Z,62.26
2022-12-12T19:28:34.305Z,62.31
2022-12-12T19:31:11.182Z,62.43
2022-12-12T19:33:37.964Z,62.77
2022-12-12T19:36:10.838Z,62.60
2022-12-12T19:38:37.370Z,62.67
2022-12-12T19:41:04.820Z,62.97
2022-12-12T19:43:31.528Z,63.16
2022-12-12T19:46:05.090Z,63.50
2022-12-12T19:48:35.252Z,63.77
2022-12-12T19:51:32.591Z,63.84
2022-12-12T19:53:59.776Z,63.80
2022-12-12T19:56:27.480Z,63.97
2022-12-12T19:58:56.920Z,64.32
2022-12-12T20:01:25.196Z,64.53
2022-12-12T20:03:55.828Z,64.41
2022-12-12T20:06:22.835Z,64.89
2022-12-12T20:08:50.366Z,63.67
2022-12-12T20:11:20.895Z,63.58
2022-12-12T20:13:49.425Z,63.21
2022-12-12T20:16:17.207Z,62.61
2022-12-12T20:18:44.567Z,62.39
2022-12-12T20:21:29.862Z,62.29
2022-12-12T20:24:01.508Z,62.54
2022-12-12T20:26:31.124Z,62.70
2022-12-12T20:28:59.589Z,62.46
2022-12-12T20:31:31.230Z,63.76
2022-12-12T20:33:58.535Z,63.68
2022-12-12T20:36:29.386Z,63.61
2022-12-12T20:38:56.876Z,64.06
2022-12-12T20:41:27.621Z,64.12
2022-12-12T20:43:57.417Z,64.50
2022-12-12T20:46:25.550Z,64.58
2022-12-12T20:48:52.409Z,64.19
2022-12-12T20:51:53.522Z,63.72
2022-12-12T20:54:08.468Z,64.11
2022-12-12T20:56:40.320Z,63.87
2022-12-12T20:59:20.059Z,63.97
2022-12-12T21:01:47.444Z,64.07
2022-12-12T21:04:16.652Z,64.34
2022-12-12T21:06:48.153Z,64.35
2022-12-12T21:09:22.631Z,64.47
2022-12-12T21:11:50.098Z,64.09
2022-12-12T21:14:16.619Z,63.80
2022-12-12T21:16:43.383Z,63.22
2022-12-12T21:19:11.561Z,63.84
2022-12-12T21:21:38.895Z,63.50
2022-12-12T21:24:07.941Z,63.68
2022-12-12T21:26:36.825Z,63.62
2022-12-12T21:29:06.092Z,63.82
2022-12-12T21:31:36.988Z,63.20
2022-12-12T21:34:04.048Z,62.34
2022-12-12T21:36:30.692Z,62.89
2022-12-12T21:38:58.053Z,62.75
2022-12-12T21:41:24.712Z,62.33
2022-12-12T21:43:52.143Z,62.40
2022-12-12T21:46:22.065Z,62.63
2022-12-12T21:49:11.398Z,62.64
2022-12-12T21:51:41.098Z,63.09
2022-12-12T21:54:14.740Z,63.57
2022-12-12T21:56:42.356Z,63.69
2022-12-12T21:59:12.702Z,63.78
2022-12-12T22:01:39.401Z,64.37
2022-12-12T22:04:08.318Z,64.19
2022-12-12T22:06:37.737Z,63.78
2022-12-12T22:09:05.409Z,64.04
2022-12-12T22:11:41.328Z,64.21
2022-12-12T22:14:19.478Z,64.01
2022-12-12T22:16:46.181Z,64.33
2022-12-12T22:19:13.607Z,63.89
2022-12-12T22:21:40.235Z,63.88
2022-12-12T22:24:06.986Z,63.60
2022-12-12T22:26:34.738Z,63.58
2022-12-12T22:29:02.139Z,63.58
2022-12-12T22:31:33.066Z,63.61
2022-12-12T22:34:00.541Z,63.39
2022-12-12T22:36:31.140Z,63.77
2022-12-12T22:38:58.105Z,63.79
2022-12-12T22:41:25.136Z,63.43
2022-12-12T22:43:55.432Z,63.71
2022-12-12T22:46:22.640Z,64.19
2022-12-12T22:48:49.300Z,64.38
2022-12-12T22:51:20.103Z,64.96
2022-12-12T22:53:46.679Z,65.35
2022-12-12T22:56:13.467Z,65.61
2022-12-12T22:58:40.340Z,65.98
2022-12-12T23:01:16.407Z,65.58
2022-12-12T23:03:43.128Z,66.09
2022-12-12T23:06:11.151Z,66.32
2022-12-12T23:08:38.074Z,66.00
2022-12-12T23:11:08.953Z,66.08
2022-12-12T23:13:35.532Z,66.60
2022-12-12T23:16:11.098Z,66.67
2022-12-12T23:18:38.286Z,66.14
2022-12-12T23:21:05.797Z,66.33
2022-12-12T23:23:35.044Z,66.27
2022-12-12T23:26:07.671Z,66.27
2022-12-12T23:28:34.545Z,66.42
2022-12-12T23:31:03.455Z,66.41
2022-12-12T23:33:30.051Z,66.35
2022-12-12T23:35:56.674Z,66.62
2022-12-12T23:38:23.214Z,67.48
2022-12-12T23:40:49.909Z,66.60
2022-12-12T23:43:16.540Z,66.11
2022-12-12T23:45:43.925Z,67.15
2022-12-12T23:48:10.594Z,66.78
2022-12-12T23:50:37.107Z,66.41
2022-12-12T23:53:10.483Z,66.45
2022-12-12T23:55:37.314Z,66.07
2022-12-12T23:58:06.680Z,66.03
